Decoded Metar for OERF (RAFHA in SAUDI ARABIA) (IATA:RAH) | Meteo·Mobile Aviation Weather
aviador You're here:

OERF Decoded Metar

RAFHA in SAUDI ARABIA
Report Time2019-06-18 14:00:00
UTC Time2019-06-18 14:14:52
Flight Rules vfr VFR
Wind310° at 07 kt
W.Decomp.*RWY 29: 6.7 kt HW 2.2 kt RCW
Visibility9999 m
Phenomena:N/A
Clouds:N/A
Expected CloudBase > 15,600 ft AGL from Temp-Dew spread
CeilingNone
Temp41°C (ISA +29)
Dew Point02°C (9% RH)
Heat Index37.8°C
AAT36.8°C
QNH1006 hPa
Density Alt5,030 ft
Elevation1,467 ft
Report Wrong Elevation
Raw Report
METAR OERF 181400Z 31007KT CAVOK 41/02 Q1006=

Extra information for OERF:More info

Metar Taf Metar & Taf Last 4 Metars F.Rules Stats Wind Profile Meteogram Temp Stats Airport Information Weather charts Add Link Nearby VenuesMetar ALERT Operation Metar Decoded Social comments